Pagrindinis puslapis
METAR-TAF:

METAR-TAF

Oro uostai :

Rangūnas, Mianmaras

platuma: 16-46N, ilguma: 096-10E, Aukštis: 14 m

Dabartinis oras

Ataskaita buvo paskelbta 23 minutes, ne 08:30 UTC
Vėjas 4 kt iš Vakarų/Pietvakarių
Temperatūra 30°C
Drėgmė 40%
Slėgis 1008 hPa
Matomumas: 7000 m

METAR: VYYY 160830Z 24004KT 7000 NSC 30/15 Q1008 NOSIG

Laikas: 15:23 (08:53 UTC)

Prognozė

Ataskaita buvo paskelbta 3 valandos ir 53 minutes, ne 05:00 UTC
Prognozė galioja nuo 16 metu 06 UTC su 17 metu 06 UTC
Vėjas 6 kt iš Pietryčių
Matomumas: 7000 m
Mažai debesys ne aukštis 2000 ft
Tapsmas
nuo 16 metu 09 UTC su 16 metu 12 UTC
Vėjas 7 kt iš Pietų
Matomumas: 6000 m
Mažai debesys ne aukštis 1800 ft
migla
Tikimybė 30% :
Tapsmas
nuo 16 metu 15 UTC su 16 metu 18 UTC
Vėjas 8 kt iš Pietų, svyruoja nuo Šiaurės Rytų ir Pietų

TAF: VYYY 160500Z 1606/1706 14006KT 7000 FEW020 TX31/1612 TN17/1623 BECMG 1609/1612 19007KT 6000 HZ FEW018 PROB30 BECMG 1615/1618 18008KT 040V170

Orai ataskaitas ir orų prognozės (METAR, TAF).

turimą stotys yra geltonos ir raudonos taškus žemėlapyje.

Perkelti pele per norėdami pamatyti stoties vardą.

Tada spustelėkite, norėdami matyti oro stebėjimo ir prognozės.

Norėdami pakeisti žemėlapį: spustelėkite ant žalios mygtukų su juodo kryžiaus žemyn,; žalią mygtuką su brūkšneliu, jei norite nutolinti; arba žalių rodyklių gretimoms žemėlapius.


METAR-TAF: